Missouri River (Missouri), Napolean (06894650)

StateMissouriLatestUnknown (34900 cfs)
RiverMissouri RiverRatingObservedEstimated
Updated2021-02-25 10:00 (1 hour ago)Flood - The river is flooding. Obstacles can be treacherous or deadly. The river should be avoided at this stage for casual trips and definitely for the inexperienced. Trips should be attempted only with protective gear and equipment.Flood(none)(none)
Discharge34900 cfs (median: 71600 cfs)High - The river is high and potentially dangerous, especially for the young and / or inexperienced. Normal stream obstacles are sometimes difficult to navigate. Extended distances can be attempted, but canoe travel may not be advisable.High(none)(none)
Height5.77 feetGood - Conditions are ideal for a canoe or kayak. Boats typically will drag on fewer than one-quarter of riffles, if at all, and portages are unnecessary or rare. Normal float lengths can be attempted without a problem.Good(none)(none)
TrendRising (rising over 24 hours)Low - River is low but can still be floated. Some riffles are okay but most come with significant dragging and might need a portage. Float lengths should be reduced to accommodate low flow, dragging, and portages.Low(none)(none)
USGSExternal icon USGS Site (External icon Google Maps)Poor - River is too low to float comfortably. Most or all riffles will drag or must be portaged and some obstacles (such as slick shelf rock) cause undue problems. Avoid the river at this stage for casual paddling trips.Poor(none)(none)

Trending Data

Plot Image

Trips for Missouri River (Missouri), Napolean (06894650)

DateStartEndDistanceConditionDischargeHeightFishingDetails

A total of 0 rows are displayed.

Condition Descriptions

Fishing Conditions

Fish Species

Notes

Classic Trip List

The classic River Trips application is still available for use. It is updated with the new system using a data retrofit. It is no longer maintained. The original River Trips application is no longer updated (as of 1 Dec 2016) but can be checked for errors or for the condition of the data before it was converted to the new system.

Gauge Data Table

ObservationHeightDischargeMaximum
Discharge
Minimum
Discharge
Mean
Discharge
P05P10P20P25P50
(Median)
P75P80P90P95
2021-02-25 10:00 5.77 34900 74900 (2019) 40600 (2018) 61400 41800 43600 71600 74100 74600
2021-02-25 09:00 5.75 34800 74900 (2019) 40600 (2018) 61400 41800 43600 71600 74100 74600
2021-02-25 08:00 5.77 34900 74900 (2019) 40600 (2018) 61400 41800 43600 71600 74100 74600
2021-02-25 07:00 5.73 34700 74900 (2019) 40600 (2018) 61400 41800 43600 71600 74100 74600
2021-02-25 06:00 5.74 34800 74900 (2019) 40600 (2018) 61400 41800 43600 71600 74100 74600
2021-02-25 05:00 5.73 34700 74900 (2019) 40600 (2018) 61400 41800 43600 71600 74100 74600
2021-02-25 04:00 5.72 34700 74900 (2019) 40600 (2018) 61400 41800 43600 71600 74100 74600
2021-02-25 03:00 5.73 34700 74900 (2019) 40600 (2018) 61400 41800 43600 71600 74100 74600
2021-02-25 02:00 5.73 34700 74900 (2019) 40600 (2018) 61400 41800 43600 71600 74100 74600
2021-02-25 01:00 5.71 34600 74900 (2019) 40600 (2018) 61400 41800 43600 71600 74100 74600
2021-02-25 00:00 5.72 34700 74900 (2019) 40600 (2018) 61400 41800 43600 71600 74100 74600
2021-02-24 23:00 5.69 34600 76500 (2016) 40900 (2018) 60600 42100 43900 69400 73000 75100
2021-02-24 22:00 5.67 34500 76500 (2016) 40900 (2018) 60600 42100 43900 69400 73000 75100
2021-02-24 21:00 5.69 34600 76500 (2016) 40900 (2018) 60600 42100 43900 69400 73000 75100
2021-02-24 20:00 5.67 34500 76500 (2016) 40900 (2018) 60600 42100 43900 69400 73000 75100
2021-02-24 19:00 5.67 34500 76500 (2016) 40900 (2018) 60600 42100 43900 69400 73000 75100
2021-02-24 18:00 5.69 34600 76500 (2016) 40900 (2018) 60600 42100 43900 69400 73000 75100
2021-02-24 17:00 5.65 34400 76500 (2016) 40900 (2018) 60600 42100 43900 69400 73000 75100
2021-02-24 16:00 5.67 34500 76500 (2016) 40900 (2018) 60600 42100 43900 69400 73000 75100
2021-02-24 15:00 5.69 34600 76500 (2016) 40900 (2018) 60600 42100 43900 69400 73000 75100
2021-02-24 14:00 5.63 34300 76500 (2016) 40900 (2018) 60600 42100 43900 69400 73000 75100
2021-02-24 13:00 5.67 34500 76500 (2016) 40900 (2018) 60600 42100 43900 69400 73000 75100
2021-02-24 12:00 5.66 34400 76500 (2016) 40900 (2018) 60600 42100 43900 69400 73000 75100
2021-02-24 11:00 5.63 34300 76500 (2016) 40900 (2018) 60600 42100 43900 69400 73000 75100
2021-02-24 10:00 5.66 34400 76500 (2016) 40900 (2018) 60600 42100 43900 69400 73000 75100
2021-02-24 09:00 5.61 34200 76500 (2016) 40900 (2018) 60600 42100 43900 69400 73000 75100
2021-02-24 08:00 5.63 34300 76500 (2016) 40900 (2018) 60600 42100 43900 69400 73000 75100
2021-02-24 07:00 5.59 34100 76500 (2016) 40900 (2018) 60600 42100 43900 69400 73000 75100
2021-02-24 06:00 5.60 34200 76500 (2016) 40900 (2018) 60600 42100 43900 69400 73000 75100
2021-02-24 05:00 5.57 34000 76500 (2016) 40900 (2018) 60600 42100 43900 69400 73000 75100
2021-02-24 04:00 5.59 34100 76500 (2016) 40900 (2018) 60600 42100 43900 69400 73000 75100
2021-02-24 03:00 5.56 34000 76500 (2016) 40900 (2018) 60600 42100 43900 69400 73000 75100
2021-02-24 02:00 5.56 34000 76500 (2016) 40900 (2018) 60600 42100 43900 69400 73000 75100
2021-02-24 01:00 5.56 34000 76500 (2016) 40900 (2018) 60600 42100 43900 69400 73000 75100
2021-02-24 00:00 5.56 34000 76500 (2016) 40900 (2018) 60600 42100 43900 69400 73000 75100
2021-02-23 23:00 5.54 33900 80600 (2016) 40800 (2018) 58000 42000 43800 52200 75200 78500
2021-02-23 22:00 5.55 33900 80600 (2016) 40800 (2018) 58000 42000 43800 52200 75200 78500
2021-02-23 21:00 5.52 33800 80600 (2016) 40800 (2018) 58000 42000 43800 52200 75200 78500
2021-02-23 20:00 5.54 33900 80600 (2016) 40800 (2018) 58000 42000 43800 52200 75200 78500
2021-02-23 19:00 5.52 33800 80600 (2016) 40800 (2018) 58000 42000 43800 52200 75200 78500
2021-02-23 18:00 5.52 33800 80600 (2016) 40800 (2018) 58000 42000 43800 52200 75200 78500
2021-02-23 17:00 5.52 33800 80600 (2016) 40800 (2018) 58000 42000 43800 52200 75200 78500
2021-02-23 16:00 5.50 33700 80600 (2016) 40800 (2018) 58000 42000 43800 52200 75200 78500
2021-02-23 15:00 5.48 33600 80600 (2016) 40800 (2018) 58000 42000 43800 52200 75200 78500
2021-02-23 14:00 5.49 33700 80600 (2016) 40800 (2018) 58000 42000 43800 52200 75200 78500
2021-02-23 13:00 5.46 33600 80600 (2016) 40800 (2018) 58000 42000 43800 52200 75200 78500
2021-02-23 12:00 5.45 33500 80600 (2016) 40800 (2018) 58000 42000 43800 52200 75200 78500
2021-02-23 11:00 5.45 33500 80600 (2016) 40800 (2018) 58000 42000 43800 52200 75200 78500
2021-02-23 10:00 5.42 33400 80600 (2016) 40800 (2018) 58000 42000 43800 52200 75200 78500
2021-02-23 09:00 5.40 33300 80600 (2016) 40800 (2018) 58000 42000 43800 52200 75200 78500
2021-02-23 08:00 5.41 33300 80600 (2016) 40800 (2018) 58000 42000 43800 52200 75200 78500
2021-02-23 07:00 5.37 33200 80600 (2016) 40800 (2018) 58000 42000 43800 52200 75200 78500
2021-02-23 06:00 5.36 33100 80600 (2016) 40800 (2018) 58000 42000 43800 52200 75200 78500
2021-02-23 05:00 5.36 33100 80600 (2016) 40800 (2018) 58000 42000 43800 52200 75200 78500
2021-02-23 04:00 5.32 32900 80600 (2016) 40800 (2018) 58000 42000 43800 52200 75200 78500
2021-02-23 03:00 5.32 32900 80600 (2016) 40800 (2018) 58000 42000 43800 52200 75200 78500
2021-02-23 02:00 5.31 32900 80600 (2016) 40800 (2018) 58000 42000 43800 52200 75200 78500
2021-02-23 01:00 5.29 32800 80600 (2016) 40800 (2018) 58000 42000 43800 52200 75200 78500
2021-02-23 00:00 5.27 32700 80600 (2016) 40800 (2018) 58000 42000 43800 52200 75200 78500
2021-02-22 23:00 5.24 32600 75000 (2016) 39800 (2018) 57000 41200 43200 49700 74500 74800
2021-02-22 22:00 5.25 32600 75000 (2016) 39800 (2018) 57000 41200 43200 49700 74500 74800
2021-02-22 21:00 5.23 32600 75000 (2016) 39800 (2018) 57000 41200 43200 49700 74500 74800
2021-02-22 20:00 5.22 32500 75000 (2016) 39800 (2018) 57000 41200 43200 49700 74500 74800
2021-02-22 19:00 5.22 32500 75000 (2016) 39800 (2018) 57000 41200 43200 49700 74500 74800
2021-02-22 18:00 5.21 32500 75000 (2016) 39800 (2018) 57000 41200 43200 49700 74500 74800
2021-02-22 17:00 5.20 32400 75000 (2016) 39800 (2018) 57000 41200 43200 49700 74500 74800
2021-02-22 16:00 5.19 32400 75000 (2016) 39800 (2018) 57000 41200 43200 49700 74500 74800
2021-02-22 15:00 5.16 32300 75000 (2016) 39800 (2018) 57000 41200 43200 49700 74500 74800
2021-02-22 14:00 5.16 32300 75000 (2016) 39800 (2018) 57000 41200 43200 49700 74500 74800
2021-02-22 13:00 5.14 32200 75000 (2016) 39800 (2018) 57000 41200 43200 49700 74500 74800
2021-02-22 12:00 5.15 32200 75000 (2016) 39800 (2018) 57000 41200 43200 49700 74500 74800
2021-02-22 11:00 5.15 32200 75000 (2016) 39800 (2018) 57000 41200 43200 49700 74500 74800
2021-02-22 10:00 5.14 32200 75000 (2016) 39800 (2018) 57000 41200 43200 49700 74500 74800
2021-02-22 09:00 5.13 32100 75000 (2016) 39800 (2018) 57000 41200 43200 49700 74500 74800
2021-02-22 08:00 5.14 32200 75000 (2016) 39800 (2018) 57000 41200 43200 49700 74500 74800
2021-02-22 07:00 5.13 32100 75000 (2016) 39800 (2018) 57000 41200 43200 49700 74500 74800
2021-02-22 06:00 5.12 32100 75000 (2016) 39800 (2018) 57000 41200 43200 49700 74500 74800
2021-02-22 05:00 5.11 32100 75000 (2016) 39800 (2018) 57000 41200 43200 49700 74500 74800
2021-02-22 04:00 5.10 32000 75000 (2016) 39800 (2018) 57000 41200 43200 49700 74500 74800
2021-02-22 03:00 5.09 32000 75000 (2016) 39800 (2018) 57000 41200 43200 49700 74500 74800
2021-02-22 02:00 5.09 32000 75000 (2016) 39800 (2018) 57000 41200 43200 49700 74500 74800
2021-02-22 01:00 5.10 32000 75000 (2016) 39800 (2018) 57000 41200 43200 49700 74500 74800
2021-02-22 00:00 5.07 31900 75000 (2016) 39800 (2018) 57000 41200 43200 49700 74500 74800
2021-02-21 23:00 5.09 32000 75900 (2020) 39600 (2018) 54900 40900 42800 49800 69500 73300
2021-02-21 22:00 5.08 31900 75900 (2020) 39600 (2018) 54900 40900 42800 49800 69500 73300
2021-02-21 21:00 5.08 31900 75900 (2020) 39600 (2018) 54900 40900 42800 49800 69500 73300
2021-02-21 20:00 5.08 31900 75900 (2020) 39600 (2018) 54900 40900 42800 49800 69500 73300
2021-02-21 19:00 5.07 31900 75900 (2020) 39600 (2018) 54900 40900 42800 49800 69500 73300
2021-02-21 18:00 5.06 31800 75900 (2020) 39600 (2018) 54900 40900 42800 49800 69500 73300
2021-02-21 17:00 5.07 31900 75900 (2020) 39600 (2018) 54900 40900 42800 49800 69500 73300
2021-02-21 16:00 5.06 31800 75900 (2020) 39600 (2018) 54900 40900 42800 49800 69500 73300
2021-02-21 15:00 5.03 31700 75900 (2020) 39600 (2018) 54900 40900 42800 49800 69500 73300
2021-02-21 14:00 5.05 31800 75900 (2020) 39600 (2018) 54900 40900 42800 49800 69500 73300
2021-02-21 13:00 5.02 31700 75900 (2020) 39600 (2018) 54900 40900 42800 49800 69500 73300
2021-02-21 12:00 5.01 31600 75900 (2020) 39600 (2018) 54900 40900 42800 49800 69500 73300
2021-02-21 11:00 5.00 31600 75900 (2020) 39600 (2018) 54900 40900 42800 49800 69500 73300
2021-02-21 10:00 4.97 31500 75900 (2020) 39600 (2018) 54900 40900 42800 49800 69500 73300
2021-02-21 09:00 4.97 31500 75900 (2020) 39600 (2018) 54900 40900 42800 49800 69500 73300
2021-02-21 08:00 4.98 31500 75900 (2020) 39600 (2018) 54900 40900 42800 49800 69500 73300
2021-02-21 07:00 4.96 31400 75900 (2020) 39600 (2018) 54900 40900 42800 49800 69500 73300
2021-02-21 06:00 4.98 31500 75900 (2020) 39600 (2018) 54900 40900 42800 49800 69500 73300
2021-02-21 05:00 4.95 31400 75900 (2020) 39600 (2018) 54900 40900 42800 49800 69500 73300
2021-02-21 04:00 4.96 31400 75900 (2020) 39600 (2018) 54900 40900 42800 49800 69500 73300
2021-02-21 03:00 4.94 31300 75900 (2020) 39600 (2018) 54900 40900 42800 49800 69500 73300
2021-02-21 02:00 4.92 31300 75900 (2020) 39600 (2018) 54900 40900 42800 49800 69500 73300
2021-02-21 01:00 4.93 31300 75900 (2020) 39600 (2018) 54900 40900 42800 49800 69500 73300
2021-02-21 00:00 4.94 31300 75900 (2020) 39600 (2018) 54900 40900 42800 49800 69500 73300
2021-02-20 23:00 4.94 31300 73200 (2020) 38100 (2018) 53500 39800 42400 50200 66200 70400
2021-02-20 22:00 4.92 31300 73200 (2020) 38100 (2018) 53500 39800 42400 50200 66200 70400
2021-02-20 21:00 4.92 31300 73200 (2020) 38100 (2018) 53500 39800 42400 50200 66200 70400
2021-02-20 20:00 4.92 31300 73200 (2020) 38100 (2018) 53500 39800 42400 50200 66200 70400
2021-02-20 19:00 4.90 31200 73200 (2020) 38100 (2018) 53500 39800 42400 50200 66200 70400
2021-02-20 18:00 4.89 31100 73200 (2020) 38100 (2018) 53500 39800 42400 50200 66200 70400
2021-02-20 17:00 4.90 31200 73200 (2020) 38100 (2018) 53500 39800 42400 50200 66200 70400
2021-02-20 16:00 4.87 31100 73200 (2020) 38100 (2018) 53500 39800 42400 50200 66200 70400
2021-02-20 15:00 4.87 31100 73200 (2020) 38100 (2018) 53500 39800 42400 50200 66200 70400
2021-02-20 14:00 4.85 31000 73200 (2020) 38100 (2018) 53500 39800 42400 50200 66200 70400
2021-02-20 13:00 4.86 31000 73200 (2020) 38100 (2018) 53500 39800 42400 50200 66200 70400
2021-02-20 12:00 4.86 31000 73200 (2020) 38100 (2018) 53500 39800 42400 50200 66200 70400
2021-02-20 11:00 4.86 31000 73200 (2020) 38100 (2018) 53500 39800 42400 50200 66200 70400
2021-02-20 10:00 4.85 31000 73200 (2020) 38100 (2018) 53500 39800 42400 50200 66200 70400
2021-02-20 09:00 4.85 31000 73200 (2020) 38100 (2018) 53500 39800 42400 50200 66200 70400
2021-02-20 08:00 4.85 31000 73200 (2020) 38100 (2018) 53500 39800 42400 50200 66200 70400
2021-02-20 07:00 4.87 31100 73200 (2020) 38100 (2018) 53500 39800 42400 50200 66200 70400
2021-02-20 06:00 4.85 31000 73200 (2020) 38100 (2018) 53500 39800 42400 50200 66200 70400
2021-02-20 05:00 4.86 31000 73200 (2020) 38100 (2018) 53500 39800 42400 50200 66200 70400
2021-02-20 04:00 4.89 31100 73200 (2020) 38100 (2018) 53500 39800 42400 50200 66200 70400
2021-02-20 03:00 4.87 31100 73200 (2020) 38100 (2018) 53500 39800 42400 50200 66200 70400
2021-02-20 02:00 4.86 31000 73200 (2020) 38100 (2018) 53500 39800 42400 50200 66200 70400
2021-02-20 01:00 4.88 31100 73200 (2020) 38100 (2018) 53500 39800 42400 50200 66200 70400
2021-02-20 00:00 4.86 31000 73200 (2020) 38100 (2018) 53500 39800 42400 50200 66200 70400
2021-02-19 23:00 4.86 31000 70600 (2020) 36400 (2018) 52000 38700 42200 51100 62300 67300
2021-02-19 22:00 4.84 30900 70600 (2020) 36400 (2018) 52000 38700 42200 51100 62300 67300
2021-02-19 21:00 4.85 31000 70600 (2020) 36400 (2018) 52000 38700 42200 51100 62300 67300
2021-02-19 20:00 4.86 31000 70600 (2020) 36400 (2018) 52000 38700 42200 51100 62300 67300
2021-02-19 19:00 4.85 31000 70600 (2020) 36400 (2018) 52000 38700 42200 51100 62300 67300
2021-02-19 18:00 4.84 30900 70600 (2020) 36400 (2018) 52000 38700 42200 51100 62300 67300
2021-02-19 17:00 4.83 30900 70600 (2020) 36400 (2018) 52000 38700 42200 51100 62300 67300
2021-02-19 16:00 4.82 30900 70600 (2020) 36400 (2018) 52000 38700 42200 51100 62300 67300
2021-02-19 15:00 4.83 30900 70600 (2020) 36400 (2018) 52000 38700 42200 51100 62300 67300
2021-02-19 14:00 4.82 30900 70600 (2020) 36400 (2018) 52000 38700 42200 51100 62300 67300
2021-02-19 13:00 4.82 30900 70600 (2020) 36400 (2018) 52000 38700 42200 51100 62300 67300
2021-02-19 12:00 4.83 30900 70600 (2020) 36400 (2018) 52000 38700 42200 51100 62300 67300
2021-02-19 11:00 4.83 30900 70600 (2020) 36400 (2018) 52000 38700 42200 51100 62300 67300
2021-02-19 10:00 4.83 30900 70600 (2020) 36400 (2018) 52000 38700 42200 51100 62300 67300
2021-02-19 09:00 4.85 31000 70600 (2020) 36400 (2018) 52000 38700 42200 51100 62300 67300
2021-02-19 08:00 4.85 31000 70600 (2020) 36400 (2018) 52000 38700 42200 51100 62300 67300
2021-02-19 07:00 4.86 31000 70600 (2020) 36400 (2018) 52000 38700 42200 51100 62300 67300
2021-02-19 06:00 4.85 31000 70600 (2020) 36400 (2018) 52000 38700 42200 51100 62300 67300
2021-02-19 05:00 4.85 31000 70600 (2020) 36400 (2018) 52000 38700 42200 51100 62300 67300
2021-02-19 04:00 4.86 31000 70600 (2020) 36400 (2018) 52000 38700 42200 51100 62300 67300
2021-02-19 03:00 4.85 31000 70600 (2020) 36400 (2018) 52000 38700 42200 51100 62300 67300
2021-02-19 02:00 4.85 31000 70600 (2020) 36400 (2018) 52000 38700 42200 51100 62300 67300
2021-02-19 01:00 4.85 31000 70600 (2020) 36400 (2018) 52000 38700 42200 51100 62300 67300
2021-02-19 00:00 4.85 31000 70600 (2020) 36400 (2018) 52000 38700 42200 51100 62300 67300
2021-02-18 23:00 4.85 31000 66700 (2020) 35500 (2018) 50100 38000 41800 48700 59000 63600
2021-02-18 22:00 4.86 31000 66700 (2020) 35500 (2018) 50100 38000 41800 48700 59000 63600
2021-02-18 21:00 4.86 31000 66700 (2020) 35500 (2018) 50100 38000 41800 48700 59000 63600
2021-02-18 20:00 4.87 31100 66700 (2020) 35500 (2018) 50100 38000 41800 48700 59000 63600
2021-02-18 19:00 4.86 31000 66700 (2020) 35500 (2018) 50100 38000 41800 48700 59000 63600
2021-02-18 18:00 4.87 31100 66700 (2020) 35500 (2018) 50100 38000 41800 48700 59000 63600
2021-02-18 17:00 4.86 31000 66700 (2020) 35500 (2018) 50100 38000 41800 48700 59000 63600
2021-02-18 16:00 4.88 31100 66700 (2020) 35500 (2018) 50100 38000 41800 48700 59000 63600
2021-02-18 15:00 4.86 31000 66700 (2020) 35500 (2018) 50100 38000 41800 48700 59000 63600
2021-02-18 14:00 4.86 31000 66700 (2020) 35500 (2018) 50100 38000 41800 48700 59000 63600
2021-02-18 13:00 4.86 31000 66700 (2020) 35500 (2018) 50100 38000 41800 48700 59000 63600
2021-02-18 12:00 4.88 31100 66700 (2020) 35500 (2018) 50100 38000 41800 48700 59000 63600
2021-02-18 11:00 4.88 31100 66700 (2020) 35500 (2018) 50100 38000 41800 48700 59000 63600
2021-02-18 10:00 4.89 31100 66700 (2020) 35500 (2018) 50100 38000 41800 48700 59000 63600
2021-02-18 09:00 4.87 31100 66700 (2020) 35500 (2018) 50100 38000 41800 48700 59000 63600
2021-02-18 08:00 4.88 31100 66700 (2020) 35500 (2018) 50100 38000 41800 48700 59000 63600
2021-02-18 07:00 4.87 31100 66700 (2020) 35500 (2018) 50100 38000 41800 48700 59000 63600
2021-02-18 06:00 4.88 31100 66700 (2020) 35500 (2018) 50100 38000 41800 48700 59000 63600
2021-02-18 05:00 4.87 31100 66700 (2020) 35500 (2018) 50100 38000 41800 48700 59000 63600
2021-02-18 04:00 4.88 31100 66700 (2020) 35500 (2018) 50100 38000 41800 48700 59000 63600
2021-02-18 03:00 4.86 31000 66700 (2020) 35500 (2018) 50100 38000 41800 48700 59000 63600
2021-02-18 02:00 4.86 31000 66700 (2020) 35500 (2018) 50100 38000 41800 48700 59000 63600
2021-02-18 01:00 4.85 31000 66700 (2020) 35500 (2018) 50100 38000 41800 48700 59000 63600
2021-02-18 00:00 4.84 30900 66700 (2020) 35500 (2018) 50100 38000 41800 48700 59000 63600
2021-02-17 23:00 4.83 30900 64900 (2020) 35100 (2018) 49900 37800 41900 49000 58400 62300
2021-02-17 22:00 4.83 30900 64900 (2020) 35100 (2018) 49900 37800 41900 49000 58400 62300
2021-02-17 21:00 4.81 30800 64900 (2020) 35100 (2018) 49900 37800 41900 49000 58400 62300
2021-02-17 20:00 4.81 30800 64900 (2020) 35100 (2018) 49900 37800 41900 49000 58400 62300
2021-02-17 19:00 4.80 30800 64900 (2020) 35100 (2018) 49900 37800 41900 49000 58400 62300
2021-02-17 18:00 4.79 30700 64900 (2020) 35100 (2018) 49900 37800 41900 49000 58400 62300
2021-02-17 17:00 4.78 30700 64900 (2020) 35100 (2018) 49900 37800 41900 49000 58400 62300
2021-02-17 16:00 4.79 30700 64900 (2020) 35100 (2018) 49900 37800 41900 49000 58400 62300
2021-02-17 15:00 4.77 30700 64900 (2020) 35100 (2018) 49900 37800 41900 49000 58400 62300
2021-02-17 14:00 4.78 30700 64900 (2020) 35100 (2018) 49900 37800 41900 49000 58400 62300
2021-02-17 13:00 4.78 30700 64900 (2020) 35100 (2018) 49900 37800 41900 49000 58400 62300
2021-02-17 12:00 4.78 30700 64900 (2020) 35100 (2018) 49900 37800 41900 49000 58400 62300
2021-02-17 11:00 4.77 30700 64900 (2020) 35100 (2018) 49900 37800 41900 49000 58400 62300
2021-02-17 10:00 4.77 30700 64900 (2020) 35100 (2018) 49900 37800 41900 49000 58400 62300
2021-02-17 09:00 4.76 30600 64900 (2020) 35100 (2018) 49900 37800 41900 49000 58400 62300
2021-02-17 08:00 4.77 30700 64900 (2020) 35100 (2018) 49900 37800 41900 49000 58400 62300
2021-02-17 07:00 4.77 30700 64900 (2020) 35100 (2018) 49900 37800 41900 49000 58400 62300
2021-02-17 06:00 4.74 30500 64900 (2020) 35100 (2018) 49900 37800 41900 49000 58400 62300
2021-02-17 05:00 4.74 30500 64900 (2020) 35100 (2018) 49900 37800 41900 49000 58400 62300
2021-02-17 04:00 4.77 30700 64900 (2020) 35100 (2018) 49900 37800 41900 49000 58400 62300
2021-02-17 03:00 4.75 30600 64900 (2020) 35100 (2018) 49900 37800 41900 49000 58400 62300
2021-02-17 02:00 4.76 30600 64900 (2020) 35100 (2018) 49900 37800 41900 49000 58400 62300
2021-02-17 01:00 4.76 30600 64900 (2020) 35100 (2018) 49900 37800 41900 49000 58400 62300
2021-02-17 00:00 4.76 30600 64900 (2020) 35100 (2018) 49900 37800 41900 49000 58400 62300
2021-02-16 23:00 4.75 30600 67200 (2020) 34400 (2018) 51000 37400 42000 51100 60000 64300
2021-02-16 22:00 4.74 30500 67200 (2020) 34400 (2018) 51000 37400 42000 51100 60000 64300
2021-02-16 21:00 4.73 30500 67200 (2020) 34400 (2018) 51000 37400 42000 51100 60000 64300
2021-02-16 20:00 4.71 30400 67200 (2020) 34400 (2018) 51000 37400 42000 51100 60000 64300
2021-02-16 19:00 4.69 30300 67200 (2020) 34400 (2018) 51000 37400 42000 51100 60000 64300
2021-02-16 18:00 4.49 29500 67200 (2020) 34400 (2018) 51000 37400 42000 51100 60000 64300
2021-02-16 17:00 4.51 29600 67200 (2020) 34400 (2018) 51000 37400 42000 51100 60000 64300
2021-02-16 16:00 4.51 29600 67200 (2020) 34400 (2018) 51000 37400 42000 51100 60000 64300
2021-02-16 15:00 4.53 29700 67200 (2020) 34400 (2018) 51000 37400 42000 51100 60000 64300
2021-02-16 14:00 4.54 29700 67200 (2020) 34400 (2018) 51000 37400 42000 51100 60000 64300
2021-02-16 13:00 4.56 29800 67200 (2020) 34400 (2018) 51000 37400 42000 51100 60000 64300
2021-02-16 12:00 4.57 29800 67200 (2020) 34400 (2018) 51000 37400 42000 51100 60000 64300
2021-02-16 11:00 4.59 29900 67200 (2020) 34400 (2018) 51000 37400 42000 51100 60000 64300
2021-02-16 10:00 4.62 30000 67200 (2020) 34400 (2018) 51000 37400 42000 51100 60000 64300
2021-02-16 09:00 4.62 30000 67200 (2020) 34400 (2018) 51000 37400 42000 51100 60000 64300
2021-02-16 08:00 4.63 30100 67200 (2020) 34400 (2018) 51000 37400 42000 51100 60000 64300
2021-02-16 07:00 4.66 30200 67200 (2020) 34400 (2018) 51000 37400 42000 51100 60000 64300
2021-02-16 06:00 4.66 30200 67200 (2020) 34400 (2018) 51000 37400 42000 51100 60000 64300
2021-02-16 05:00 4.67 30200 67200 (2020) 34400 (2018) 51000 37400 42000 51100 60000 64300
2021-02-16 04:00 4.69 30300 67200 (2020) 34400 (2018) 51000 37400 42000 51100 60000 64300
2021-02-16 03:00 4.68 30300 67200 (2020) 34400 (2018) 51000 37400 42000 51100 60000 64300
2021-02-16 01:00 4.70 30400 67200 (2020) 34400 (2018) 51000 37400 42000 51100 60000 64300
2021-02-16 00:00 4.70 30400 67200 (2020) 34400 (2018) 51000 37400 42000 51100 60000 64300
2021-02-15 23:00 4.70 30400 70300 (2020) 34000 (2018) 50900 36300 39700 50400 62300 67100
2021-02-15 22:00 4.72 30400 70300 (2020) 34000 (2018) 50900 36300 39700 50400 62300 67100
2021-02-15 21:00 4.72 30400 70300 (2020) 34000 (2018) 50900 36300 39700 50400 62300 67100
2021-02-15 20:00 4.72 30400 70300 (2020) 34000 (2018) 50900 36300 39700 50400 62300 67100
2021-02-15 19:00 4.73 30500 70300 (2020) 34000 (2018) 50900 36300 39700 50400 62300 67100
2021-02-15 18:00 4.74 30500 70300 (2020) 34000 (2018) 50900 36300 39700 50400 62300 67100
2021-02-15 17:00 4.76 30600 70300 (2020) 34000 (2018) 50900 36300 39700 50400 62300 67100
2021-02-15 16:00 4.77 30700 70300 (2020) 34000 (2018) 50900 36300 39700 50400 62300 67100
2021-02-15 15:00 4.78 30700 70300 (2020) 34000 (2018) 50900 36300 39700 50400 62300 67100
2021-02-15 14:00 4.78 30700 70300 (2020) 34000 (2018) 50900 36300 39700 50400 62300 67100
2021-02-15 13:00 4.77 30700 70300 (2020) 34000 (2018) 50900 36300 39700 50400 62300 67100
2021-02-15 12:00 4.79 30700 70300 (2020) 34000 (2018) 50900 36300 39700 50400 62300 67100
2021-02-15 11:00 4.81 30800 70300 (2020) 34000 (2018) 50900 36300 39700 50400 62300 67100
2021-02-15 10:00 4.81 30800 70300 (2020) 34000 (2018) 50900 36300 39700 50400 62300 67100
2021-02-15 09:00 4.82 30900 70300 (2020) 34000 (2018) 50900 36300 39700 50400 62300 67100
2021-02-15 08:00 4.82 30900 70300 (2020) 34000 (2018) 50900 36300 39700 50400 62300 67100
2021-02-15 07:00 4.85 31000 70300 (2020) 34000 (2018) 50900 36300 39700 50400 62300 67100
2021-02-15 06:00 4.84 30900 70300 (2020) 34000 (2018) 50900 36300 39700 50400 62300 67100
2021-02-15 05:00 4.86 31000 70300 (2020) 34000 (2018) 50900 36300 39700 50400 62300 67100
2021-02-15 04:00 4.85 31000 70300 (2020) 34000 (2018) 50900 36300 39700 50400 62300 67100
2021-02-15 02:00 4.82 30900 70300 (2020) 34000 (2018) 50900 36300 39700 50400 62300 67100
2021-02-15 01:00 4.83 30900 70300 (2020) 34000 (2018) 50900 36300 39700 50400 62300 67100
2021-02-15 00:00 4.83 30900 70300 (2020) 34000 (2018) 50900 36300 39700 50400 62300 67100
2021-02-14 23:00 4.82 30900 72900 (2020) 34200 (2018) 50100 35100 36400 50800 63500 69100
2021-02-14 22:00 4.82 30900 72900 (2020) 34200 (2018) 50100 35100 36400 50800 63500 69100
2021-02-14 21:00 4.80 30800 72900 (2020) 34200 (2018) 50100 35100 36400 50800 63500 69100
2021-02-14 20:00 4.81 30800 72900 (2020) 34200 (2018) 50100 35100 36400 50800 63500 69100
2021-02-14 19:00 4.80 30800 72900 (2020) 34200 (2018) 50100 35100 36400 50800 63500 69100
2021-02-14 18:00 4.81 30800 72900 (2020) 34200 (2018) 50100 35100 36400 50800 63500 69100
2021-02-14 17:00 4.83 30900 72900 (2020) 34200 (2018) 50100 35100 36400 50800 63500 69100
2021-02-14 16:00 4.81 30800 72900 (2020) 34200 (2018) 50100 35100 36400 50800 63500 69100
2021-02-14 15:00 4.84 30900 72900 (2020) 34200 (2018) 50100 35100 36400 50800 63500 69100
2021-02-14 14:00 4.87 31100 72900 (2020) 34200 (2018) 50100 35100 36400 50800 63500 69100
2021-02-14 13:00 4.87 31100 72900 (2020) 34200 (2018) 50100 35100 36400 50800 63500 69100
2021-02-14 12:00 4.86 31000 72900 (2020) 34200 (2018) 50100 35100 36400 50800 63500 69100
2021-02-14 11:00 4.87 31100 72900 (2020) 34200 (2018) 50100 35100 36400 50800 63500 69100
2021-02-14 10:00 4.88 31100 72900 (2020) 34200 (2018) 50100 35100 36400 50800 63500 69100
2021-02-14 09:00 4.90 31200 72900 (2020) 34200 (2018) 50100 35100 36400 50800 63500 69100
2021-02-14 08:00 4.88 31100 72900 (2020) 34200 (2018) 50100 35100 36400 50800 63500 69100
2021-02-14 07:00 4.90 31200 72900 (2020) 34200 (2018) 50100 35100 36400 50800 63500 69100
2021-02-14 06:00 4.93 31300 72900 (2020) 34200 (2018) 50100 35100 36400 50800 63500 69100
2021-02-14 05:00 4.91 31200 72900 (2020) 34200 (2018) 50100 35100 36400 50800 63500 69100
2021-02-14 04:00 4.92 31300 72900 (2020) 34200 (2018) 50100 35100 36400 50800 63500 69100
2021-02-14 03:00 4.94 31300 72900 (2020) 34200 (2018) 50100 35100 36400 50800 63500 69100
2021-02-14 02:00 4.93 31300 72900 (2020) 34200 (2018) 50100 35100 36400 50800 63500 69100
2021-02-14 01:00 4.92 31300 72900 (2020) 34200 (2018) 50100 35100 36400 50800 63500 69100
2021-02-14 00:00 4.94 31300 72900 (2020) 34200 (2018) 50100 35100 36400 50800 63500 69100
2021-02-13 23:00 4.93 31300 74100 (2020) 34600 (2018) 50400 35300 36300 50700 64300 70200
2021-02-13 22:00 4.94 31300 74100 (2020) 34600 (2018) 50400 35300 36300 50700 64300 70200
2021-02-13 21:00 4.94 31300 74100 (2020) 34600 (2018) 50400 35300 36300 50700 64300 70200
2021-02-13 20:00 4.93 31300 74100 (2020) 34600 (2018) 50400 35300 36300 50700 64300 70200
2021-02-13 19:00 4.95 31400 74100 (2020) 34600 (2018) 50400 35300 36300 50700 64300 70200
2021-02-13 18:00 4.97 31500 74100 (2020) 34600 (2018) 50400 35300 36300 50700 64300 70200
2021-02-13 17:00 4.96 31400 74100 (2020) 34600 (2018) 50400 35300 36300 50700 64300 70200
2021-02-13 16:00 4.98 31500 74100 (2020) 34600 (2018) 50400 35300 36300 50700 64300 70200
2021-02-13 15:00 4.97 31500 74100 (2020) 34600 (2018) 50400 35300 36300 50700 64300 70200
2021-02-13 14:00 4.99 31600 74100 (2020) 34600 (2018) 50400 35300 36300 50700 64300 70200
2021-02-13 13:00 4.98 31500 74100 (2020) 34600 (2018) 50400 35300 36300 50700 64300 70200
2021-02-13 12:00 4.98 31500 74100 (2020) 34600 (2018) 50400 35300 36300 50700 64300 70200
2021-02-13 11:00 4.99 31600 74100 (2020) 34600 (2018) 50400 35300 36300 50700 64300 70200
2021-02-13 10:00 4.99 31600 74100 (2020) 34600 (2018) 50400 35300 36300 50700 64300 70200
2021-02-13 09:00 4.98 31500 74100 (2020) 34600 (2018) 50400 35300 36300 50700 64300 70200
2021-02-13 08:00 5.01 31600 74100 (2020) 34600 (2018) 50400 35300 36300 50700 64300 70200
2021-02-13 07:00 4.99 31600 74100 (2020) 34600 (2018) 50400 35300 36300 50700 64300 70200
2021-02-13 06:00 5.00 31600 74100 (2020) 34600 (2018) 50400 35300 36300 50700 64300 70200
2021-02-13 05:00 5.00 31600 74100 (2020) 34600 (2018) 50400 35300 36300 50700 64300 70200
2021-02-13 04:00 5.00 31600 74100 (2020) 34600 (2018) 50400 35300 36300 50700 64300 70200
2021-02-13 03:00 5.01 31600 74100 (2020) 34600 (2018) 50400 35300 36300 50700 64300 70200
2021-02-13 02:00 5.00 31600 74100 (2020) 34600 (2018) 50400 35300 36300 50700 64300 70200
2021-02-13 01:00 5.01 31600 74100 (2020) 34600 (2018) 50400 35300 36300 50700 64300 70200
2021-02-13 00:00 5.00 31600 74100 (2020) 34600 (2018) 50400 35300 36300 50700 64300 70200
2021-02-12 23:00 4.99 31600 74400 (2020) 34900 (2018) 51000 35800 37100 52100 64300 70400
2021-02-12 22:00 5.00 31600 74400 (2020) 34900 (2018) 51000 35800 37100 52100 64300 70400
2021-02-12 21:00 4.99 31600 74400 (2020) 34900 (2018) 51000 35800 37100 52100 64300 70400
2021-02-12 20:00 4.99 31600 74400 (2020) 34900 (2018) 51000 35800 37100 52100 64300 70400
2021-02-12 19:00 4.97 31500 74400 (2020) 34900 (2018) 51000 35800 37100 52100 64300 70400
2021-02-12 18:00 4.98 31500 74400 (2020) 34900 (2018) 51000 35800 37100 52100 64300 70400
2021-02-12 17:00 5.00 31600 74400 (2020) 34900 (2018) 51000 35800 37100 52100 64300 70400
2021-02-12 16:00 4.97 31500 74400 (2020) 34900 (2018) 51000 35800 37100 52100 64300 70400
2021-02-12 15:00 4.98 31500 74400 (2020) 34900 (2018) 51000 35800 37100 52100 64300 70400
2021-02-12 14:00 4.97 31500 74400 (2020) 34900 (2018) 51000 35800 37100 52100 64300 70400
2021-02-12 13:00 4.99 31600 74400 (2020) 34900 (2018) 51000 35800 37100 52100 64300 70400
2021-02-12 12:00 5.00 31600 74400 (2020) 34900 (2018) 51000 35800 37100 52100 64300 70400
2021-02-12 11:00 4.96 31400 74400 (2020) 34900 (2018) 51000 35800 37100 52100 64300 70400
2021-02-12 10:00 4.96 31400 74400 (2020) 34900 (2018) 51000 35800 37100 52100 64300 70400
2021-02-12 09:00 4.96 31400 74400 (2020) 34900 (2018) 51000 35800 37100 52100 64300 70400
2021-02-12 08:00 4.96 31400 74400 (2020) 34900 (2018) 51000 35800 37100 52100 64300 70400
2021-02-12 07:00 4.94 31300 74400 (2020) 34900 (2018) 51000 35800 37100 52100 64300 70400
2021-02-12 06:00 4.94 31300 74400 (2020) 34900 (2018) 51000 35800 37100 52100 64300 70400
2021-02-12 05:00 4.93 31300 74400 (2020) 34900 (2018) 51000 35800 37100 52100 64300 70400
2021-02-12 04:00 4.94 31300 74400 (2020) 34900 (2018) 51000 35800 37100 52100 64300 70400
2021-02-12 03:00 4.94 31300 74400 (2020) 34900 (2018) 51000 35800 37100 52100 64300 70400
2021-02-12 02:00 4.93 31300 74400 (2020) 34900 (2018) 51000 35800 37100 52100 64300 70400
2021-02-12 01:00 4.95 31400 74400 (2020) 34900 (2018) 51000 35800 37100 52100 64300 70400
2021-02-12 00:00 4.93 31300 74400 (2020) 34900 (2018) 51000 35800 37100 52100 64300 70400
2021-02-11 23:00 4.91 31200 75100 (2020) 34800 (2018) 50900 35800 37300 51500 64000 70700
2021-02-11 22:00 4.93 31300 75100 (2020) 34800 (2018) 50900 35800 37300 51500 64000 70700
2021-02-11 21:00 4.91 31200 75100 (2020) 34800 (2018) 50900 35800 37300 51500 64000 70700
2021-02-11 20:00 4.91 31200 75100 (2020) 34800 (2018) 50900 35800 37300 51500 64000 70700
2021-02-11 19:00 4.94 31300 75100 (2020) 34800 (2018) 50900 35800 37300 51500 64000 70700
2021-02-11 18:00 4.91 31200 75100 (2020) 34800 (2018) 50900 35800 37300 51500 64000 70700
2021-02-11 17:00 4.92 31300 75100 (2020) 34800 (2018) 50900 35800 37300 51500 64000 70700
2021-02-11 16:00 4.89 31100 75100 (2020) 34800 (2018) 50900 35800 37300 51500 64000 70700
2021-02-11 15:00 4.91 31200 75100 (2020) 34800 (2018) 50900 35800 37300 51500 64000 70700
2021-02-11 14:00 4.89 31100 75100 (2020) 34800 (2018) 50900 35800 37300 51500 64000 70700
2021-02-11 13:00 4.92 31300 75100 (2020) 34800 (2018) 50900 35800 37300 51500 64000 70700
2021-02-11 12:00 4.91 31200 75100 (2020) 34800 (2018) 50900 35800 37300 51500 64000 70700
2021-02-11 11:00 4.91 31200 75100 (2020) 34800 (2018) 50900 35800 37300 51500 64000 70700
2021-02-11 10:00 4.91 31200 75100 (2020) 34800 (2018) 50900 35800 37300 51500 64000 70700
2021-02-11 09:00 4.90 31200 75100 (2020) 34800 (2018) 50900 35800 37300 51500 64000 70700
2021-02-11 08:00 4.89 31100 75100 (2020) 34800 (2018) 50900 35800 37300 51500 64000 70700
2021-02-11 07:00 4.91 31200 75100 (2020) 34800 (2018) 50900 35800 37300 51500 64000 70700
2021-02-11 06:00 4.92 31300 75100 (2020) 34800 (2018) 50900 35800 37300 51500 64000 70700
2021-02-11 05:00 4.90 31200 75100 (2020) 34800 (2018) 50900 35800 37300 51500 64000 70700
2021-02-11 04:00 4.89 31100 75100 (2020) 34800 (2018) 50900 35800 37300 51500 64000 70700
2021-02-11 03:00 4.90 31200 75100 (2020) 34800 (2018) 50900 35800 37300 51500 64000 70700
2021-02-11 02:00 4.89 31100 75100 (2020) 34800 (2018) 50900 35800 37300 51500 64000 70700
2021-02-11 01:00 4.87 31100 75100 (2020) 34800 (2018) 50900 35800 37300 51500 64000 70700
2021-02-11 00:00 4.88 31100 75100 (2020) 34800 (2018) 50900 35800 37300 51500 64000 70700
2021-02-10 23:00 4.88 31100 77600 (2020) 34800 (2018) 51200 35900 37500 50800 65100 72600
2021-02-10 22:00 4.86 31000 77600 (2020) 34800 (2018) 51200 35900 37500 50800 65100 72600
2021-02-10 21:00 4.87 31100 77600 (2020) 34800 (2018) 51200 35900 37500 50800 65100 72600
2021-02-10 20:00 4.86 31000 77600 (2020) 34800 (2018) 51200 35900 37500 50800 65100 72600
2021-02-10 19:00 4.87 31100 77600 (2020) 34800 (2018) 51200 35900 37500 50800 65100 72600
2021-02-10 18:00 4.89 31100 77600 (2020) 34800 (2018) 51200 35900 37500 50800 65100 72600
2021-02-10 17:00 4.88 31100 77600 (2020) 34800 (2018) 51200 35900 37500 50800 65100 72600
2021-02-10 16:00 4.89 31100 77600 (2020) 34800 (2018) 51200 35900 37500 50800 65100 72600
2021-02-10 15:00 4.90 31200 77600 (2020) 34800 (2018) 51200 35900 37500 50800 65100 72600
2021-02-10 14:00 4.89 31100 77600 (2020) 34800 (2018) 51200 35900 37500 50800 65100 72600
2021-02-10 13:00 4.90 31200 77600 (2020) 34800 (2018) 51200 35900 37500 50800 65100 72600
2021-02-10 12:00 4.90 31200 77600 (2020) 34800 (2018) 51200 35900 37500 50800 65100 72600
2021-02-10 11:00 4.88 31100 77600 (2020) 34800 (2018) 51200 35900 37500 50800 65100 72600
2021-02-10 10:00 4.88 31100 77600 (2020) 34800 (2018) 51200 35900 37500 50800 65100 72600
2021-02-10 09:00 4.89 31100 77600 (2020) 34800 (2018) 51200 35900 37500 50800 65100 72600
2021-02-10 08:00 4.90 31200 77600 (2020) 34800 (2018) 51200 35900 37500 50800 65100 72600
2021-02-10 07:00 4.90 31200 77600 (2020) 34800 (2018) 51200 35900 37500 50800 65100 72600
2021-02-10 06:00 4.90 31200 77600 (2020) 34800 (2018) 51200 35900 37500 50800 65100 72600
2021-02-10 05:00 4.90 31200 77600 (2020) 34800 (2018) 51200 35900 37500 50800 65100 72600
2021-02-10 04:00 4.91 31200 77600 (2020) 34800 (2018) 51200 35900 37500 50800 65100 72600
2021-02-10 03:00 4.91 31200 77600 (2020) 34800 (2018) 51200 35900 37500 50800 65100 72600
2021-02-10 02:00 4.92 31300 77600 (2020) 34800 (2018) 51200 35900 37500 50800 65100 72600
2021-02-10 01:00 4.93 31300 77600 (2020) 34800 (2018) 51200 35900 37500 50800 65100 72600
2021-02-10 00:00 4.93 31300 77600 (2020) 34800 (2018) 51200 35900 37500 50800 65100 72600
2021-02-09 23:00 4.94 31300 81200 (2020) 35100 (2018) 52500 36200 37800 52700 67000 75500
2021-02-09 22:00 4.95 31400 81200 (2020) 35100 (2018) 52500 36200 37800 52700 67000 75500
2021-02-09 21:00 4.98 31500 81200 (2020) 35100 (2018) 52500 36200 37800 52700 67000 75500
2021-02-09 20:00 5.00 31600 81200 (2020) 35100 (2018) 52500 36200 37800 52700 67000 75500
2021-02-09 19:00 5.04 31800 81200 (2020) 35100 (2018) 52500 36200 37800 52700 67000 75500
2021-02-09 18:00 5.04 31800 81200 (2020) 35100 (2018) 52500 36200 37800 52700 67000 75500
2021-02-09 17:00 5.05 31800 81200 (2020) 35100 (2018) 52500 36200 37800 52700 67000 75500
2021-02-09 16:00 5.09 32000 81200 (2020) 35100 (2018) 52500 36200 37800 52700 67000 75500
2021-02-09 15:00 5.12 32100 81200 (2020) 35100 (2018) 52500 36200 37800 52700 67000 75500
2021-02-09 14:00 5.17 32300 81200 (2020) 35100 (2018) 52500 36200 37800 52700 67000 75500
2021-02-09 13:00 5.18 32400 81200 (2020) 35100 (2018) 52500 36200 37800 52700 67000 75500
2021-02-09 12:00 5.23 32600 81200 (2020) 35100 (2018) 52500 36200 37800 52700 67000 75500
2021-02-09 11:00 5.31 32900 81200 (2020) 35100 (2018) 52500 36200 37800 52700 67000 75500
2021-02-09 10:00 5.37 33200 81200 (2020) 35100 (2018) 52500 36200 37800 52700 67000 75500
2021-02-09 09:00 5.50 33700 81200 (2020) 35100 (2018) 52500 36200 37800 52700 67000 75500
2021-02-09 08:00 5.97 35800 81200 (2020) 35100 (2018) 52500 36200 37800 52700 67000 75500
2021-02-09 07:00 6.11 36400 81200 (2020) 35100 (2018) 52500 36200 37800 52700 67000 75500
2021-02-09 06:00 5.34 33000 81200 (2020) 35100 (2018) 52500 36200 37800 52700 67000 75500
2021-02-09 05:00 5.30 32900 81200 (2020) 35100 (2018) 52500 36200 37800 52700 67000 75500
2021-02-09 04:00 5.29 32800 81200 (2020) 35100 (2018) 52500 36200 37800 52700 67000 75500
2021-02-09 03:00 5.30 32900 81200 (2020) 35100 (2018) 52500 36200 37800 52700 67000 75500
2021-02-09 02:00 5.31 32900 81200 (2020) 35100 (2018) 52500 36200 37800 52700 67000 75500
2021-02-09 01:00 5.34 33000 81200 (2020) 35100 (2018) 52500 36200 37800 52700 67000 75500
2021-02-09 00:00 5.37 33200 81200 (2020) 35100 (2018) 52500 36200 37800 52700 67000 75500
2021-02-08 23:00 5.35 33100 83500 (2020) 34900 (2018) 54200 35900 37500 53600 71200 78600
2021-02-08 22:00 5.37 33200 83500 (2020) 34900 (2018) 54200 35900 37500 53600 71200 78600
2021-02-08 21:00 5.41 33300 83500 (2020) 34900 (2018) 54200 35900 37500 53600 71200 78600
2021-02-08 20:00 5.41 33300 83500 (2020) 34900 (2018) 54200 35900 37500 53600 71200 78600
2021-02-08 19:00 5.44 33500 83500 (2020) 34900 (2018) 54200 35900 37500 53600 71200 78600
2021-02-08 18:00 5.48 33600 83500 (2020) 34900 (2018) 54200 35900 37500 53600 71200 78600
2021-02-08 17:00 5.47 33600 83500 (2020) 34900 (2018) 54200 35900 37500 53600 71200 78600
2021-02-08 16:00 5.53 33900 83500 (2020) 34900 (2018) 54200 35900 37500 53600 71200 78600
2021-02-08 15:00 5.53 33900 83500 (2020) 34900 (2018) 54200 35900 37500 53600 71200 78600
2021-02-08 14:00 5.53 33900 83500 (2020) 34900 (2018) 54200 35900 37500 53600 71200 78600
2021-02-08 13:00 5.56 34000 83500 (2020) 34900 (2018) 54200 35900 37500 53600 71200 78600
2021-02-08 12:00 5.55 33900 83500 (2020) 34900 (2018) 54200 35900 37500 53600 71200 78600
2021-02-08 11:00 5.61 34200 83500 (2020) 34900 (2018) 54200 35900 37500 53600 71200 78600
2021-02-08 10:00 5.60 34200 83500 (2020) 34900 (2018) 54200 35900 37500 53600 71200 78600
2021-02-08 09:00 5.60 34200 83500 (2020) 34900 (2018) 54200 35900 37500 53600 71200 78600
2021-02-08 08:00 5.62 34200 83500 (2020) 34900 (2018) 54200 35900 37500 53600 71200 78600
2021-02-08 07:00 5.65 34400 83500 (2020) 34900 (2018) 54200 35900 37500 53600 71200 78600
2021-02-08 06:00 5.66 34400 83500 (2020) 34900 (2018) 54200 35900 37500 53600 71200 78600
2021-02-08 05:00 5.67 34500 83500 (2020) 34900 (2018) 54200 35900 37500 53600 71200 78600
2021-02-08 04:00 5.66 34400 83500 (2020) 34900 (2018) 54200 35900 37500 53600 71200 78600
2021-02-08 03:00 5.67 34500 83500 (2020) 34900 (2018) 54200 35900 37500 53600 71200 78600
2021-02-08 02:00 5.69 34600 83500 (2020) 34900 (2018) 54200 35900 37500 53600 71200 78600
2021-02-08 01:00 5.68 34500 83500 (2020) 34900 (2018) 54200 35900 37500 53600 71200 78600
2021-02-08 00:00 5.68 34500 83500 (2020) 34900 (2018) 54200 35900 37500 53600 71200 78600
2021-02-07 23:00 5.69 34600 86000 (2020) 34600 (2018) 57100 35700 37300 56000 77300 82500
2021-02-07 22:00 5.67 34500 86000 (2020) 34600 (2018) 57100 35700 37300 56000 77300 82500
2021-02-07 21:00 5.70 34600 86000 (2020) 34600 (2018) 57100 35700 37300 56000 77300 82500
2021-02-07 20:00 5.71 34600 86000 (2020) 34600 (2018) 57100 35700 37300 56000 77300 82500
2021-02-07 19:00 5.71 34600 86000 (2020) 34600 (2018) 57100 35700 37300 56000 77300 82500
2021-02-07 18:00 5.67 34500 86000 (2020) 34600 (2018) 57100 35700 37300 56000 77300 82500
2021-02-07 17:00 5.71 34600 86000 (2020) 34600 (2018) 57100 35700 37300 56000 77300 82500
2021-02-07 16:00 5.70 34600 86000 (2020) 34600 (2018) 57100 35700 37300 56000 77300 82500
2021-02-07 15:00 5.71 34600 86000 (2020) 34600 (2018) 57100 35700 37300 56000 77300 82500
2021-02-07 14:00 5.70 34600 86000 (2020) 34600 (2018) 57100 35700 37300 56000 77300 82500
2021-02-07 13:00 5.69 34600 86000 (2020) 34600 (2018) 57100 35700 37300 56000 77300 82500
2021-02-07 12:00 5.67 34500 86000 (2020) 34600 (2018) 57100 35700 37300 56000 77300 82500
2021-02-07 11:00 5.68 34500 86000 (2020) 34600 (2018) 57100 35700 37300 56000 77300 82500
2021-02-07 10:00 5.67 34500 86000 (2020) 34600 (2018) 57100 35700 37300 56000 77300 82500
2021-02-07 09:00 5.68 34500 86000 (2020) 34600 (2018) 57100 35700 37300 56000 77300 82500
2021-02-07 08:00 5.68 34500 86000 (2020) 34600 (2018) 57100 35700 37300 56000 77300 82500
2021-02-07 07:00 5.66 34400 86000 (2020) 34600 (2018) 57100 35700 37300 56000 77300 82500
2021-02-07 06:00 5.65 34400 86000 (2020) 34600 (2018) 57100 35700 37300 56000 77300 82500
2021-02-07 05:00 5.60 34200 86000 (2020) 34600 (2018) 57100 35700 37300 56000 77300 82500
2021-02-07 04:00 5.61 34200 86000 (2020) 34600 (2018) 57100 35700 37300 56000 77300 82500
2021-02-07 03:00 5.63 34300 86000 (2020) 34600 (2018) 57100 35700 37300 56000 77300 82500
2021-02-07 02:00 5.63 34300 86000 (2020) 34600 (2018) 57100 35700 37300 56000 77300 82500
2021-02-07 01:00 5.60 34200 86000 (2020) 34600 (2018) 57100 35700 37300 56000 77300 82500
2021-02-07 00:00 5.59 34100 86000 (2020) 34600 (2018) 57100 35700 37300 56000 77300 82500
2021-02-06 23:00 5.62 34200 88000 (2020) 36000 (2018) 61400 37200 39000 62000 83600 86200
2021-02-06 22:00 5.60 34200 88000 (2020) 36000 (2018) 61400 37200 39000 62000 83600 86200
2021-02-06 21:00 5.62 34200 88000 (2020) 36000 (2018) 61400 37200 39000 62000 83600 86200
2021-02-06 20:00 5.61 34200 88000 (2020) 36000 (2018) 61400 37200 39000 62000 83600 86200
2021-02-06 19:00 5.58 34100 88000 (2020) 36000 (2018) 61400 37200 39000 62000 83600 86200
2021-02-06 18:00 5.62 34200 88000 (2020) 36000 (2018) 61400 37200 39000 62000 83600 86200
2021-02-06 17:00 5.62 34200 88000 (2020) 36000 (2018) 61400 37200 39000 62000 83600 86200
2021-02-06 16:00 5.65 34400 88000 (2020) 36000 (2018) 61400 37200 39000 62000 83600 86200
2021-02-06 15:00 5.65 34400 88000 (2020) 36000 (2018) 61400 37200 39000 62000 83600 86200
2021-02-06 14:00 5.64 34300 88000 (2020) 36000 (2018) 61400 37200 39000 62000 83600 86200
2021-02-06 13:00 5.64 34300 88000 (2020) 36000 (2018) 61400 37200 39000 62000 83600 86200
2021-02-06 12:00 5.65 34400 88000 (2020) 36000 (2018) 61400 37200 39000 62000 83600 86200
2021-02-06 11:00 5.67 34500 88000 (2020) 36000 (2018) 61400 37200 39000 62000 83600 86200
2021-02-06 10:00 5.64 34300 88000 (2020) 36000 (2018) 61400 37200 39000 62000 83600 86200
2021-02-06 09:00 5.68 34500 88000 (2020) 36000 (2018) 61400 37200 39000 62000 83600 86200
2021-02-06 08:00 5.67 34500 88000 (2020) 36000 (2018) 61400 37200 39000 62000 83600 86200
2021-02-06 07:00 5.66 34400 88000 (2020) 36000 (2018) 61400 37200 39000 62000 83600 86200
2021-02-06 06:00 5.68 34500 88000 (2020) 36000 (2018) 61400 37200 39000 62000 83600 86200
2021-02-06 05:00 5.69 34600 88000 (2020) 36000 (2018) 61400 37200 39000 62000 83600 86200
2021-02-06 04:00 5.70 34600 88000 (2020) 36000 (2018) 61400 37200 39000 62000 83600 86200
2021-02-06 03:00 5.70 34600 88000 (2020) 36000 (2018) 61400 37200 39000 62000 83600 86200
2021-02-06 02:00 5.69 34600 88000 (2020) 36000 (2018) 61400 37200 39000 62000 83600 86200
2021-02-06 01:00 5.70 34600 88000 (2020) 36000 (2018) 61400 37200 39000 62000 83600 86200
2021-02-06 00:00 5.73 34700 88000 (2020) 36000 (2018) 61400 37200 39000 62000 83600 86200
2021-02-05 23:00 5.70 34600 88900 (2020) 36800 (2018) 63100 38100 40000 68900 83400 86700
2021-02-05 22:00 5.70 34600 88900 (2020) 36800 (2018) 63100 38100 40000 68900 83400 86700
2021-02-05 21:00 5.71 34600 88900 (2020) 36800 (2018) 63100 38100 40000 68900 83400 86700
2021-02-05 20:00 5.72 34700 88900 (2020) 36800 (2018) 63100 38100 40000 68900 83400 86700
2021-02-05 19:00 5.71 34600 88900 (2020) 36800 (2018) 63100 38100 40000 68900 83400 86700
2021-02-05 18:00 5.77 34900 88900 (2020) 36800 (2018) 63100 38100 40000 68900 83400 86700
2021-02-05 17:00 5.72 34700 88900 (2020) 36800 (2018) 63100 38100 40000 68900 83400 86700
2021-02-05 16:00 5.75 34800 88900 (2020) 36800 (2018) 63100 38100 40000 68900 83400 86700
2021-02-05 15:00 5.75 34800 88900 (2020) 36800 (2018) 63100 38100 40000 68900 83400 86700
2021-02-05 14:00 5.73 34700 88900 (2020) 36800 (2018) 63100 38100 40000 68900 83400 86700
2021-02-05 13:00 5.74 34800 88900 (2020) 36800 (2018) 63100 38100 40000 68900 83400 86700
2021-02-05 12:00 5.75 34800 88900 (2020) 36800 (2018) 63100 38100 40000 68900 83400 86700
2021-02-05 11:00 5.74 34800 88900 (2020) 36800 (2018) 63100 38100 40000 68900 83400 86700
2021-02-05 10:00 5.76 34900 88900 (2020) 36800 (2018) 63100 38100 40000 68900 83400 86700
2021-02-05 09:00 5.77 34900 88900 (2020) 36800 (2018) 63100 38100 40000 68900 83400 86700
2021-02-05 08:00 5.76 34900 88900 (2020) 36800 (2018) 63100 38100 40000 68900 83400 86700
2021-02-05 07:00 5.75 34800 88900 (2020) 36800 (2018) 63100 38100 40000 68900 83400 86700
2021-02-05 06:00 5.73 34700 88900 (2020) 36800 (2018) 63100 38100 40000 68900 83400 86700
2021-02-05 05:00 5.76 34900 88900 (2020) 36800 (2018) 63100 38100 40000 68900 83400 86700
2021-02-05 04:00 5.76 34900 88900 (2020) 36800 (2018) 63100 38100 40000 68900 83400 86700
2021-02-05 03:00 5.75 34800 88900 (2020) 36800 (2018) 63100 38100 40000 68900 83400 86700
2021-02-05 02:00 5.73 34700 88900 (2020) 36800 (2018) 63100 38100 40000 68900 83400 86700
2021-02-05 01:00 5.74 34800 88900 (2020) 36800 (2018) 63100 38100 40000 68900 83400 86700
2021-02-05 00:00 5.73 34700 88900 (2020) 36800 (2018) 63100 38100 40000 68900 83400 86700
2021-02-04 23:00 5.73 34700 85800 (2020) 36200 (2018) 58300 37500 39600 59300 76400 82100
2021-02-04 22:00 5.74 34800 85800 (2020) 36200 (2018) 58300 37500 39600 59300 76400 82100
2021-02-04 21:00 5.74 34800 85800 (2020) 36200 (2018) 58300 37500 39600 59300 76400 82100
2021-02-04 20:00 5.69 34600 85800 (2020) 36200 (2018) 58300 37500 39600 59300 76400 82100
2021-02-04 19:00 5.70 34600 85800 (2020) 36200 (2018) 58300 37500 39600 59300 76400 82100
2021-02-04 18:00 5.72 34700 85800 (2020) 36200 (2018) 58300 37500 39600 59300 76400 82100
2021-02-04 17:00 5.71 34600 85800 (2020) 36200 (2018) 58300 37500 39600 59300 76400 82100
2021-02-04 16:00 5.69 34600 85800 (2020) 36200 (2018) 58300 37500 39600 59300 76400 82100
2021-02-04 15:00 5.69 34600 85800 (2020) 36200 (2018) 58300 37500 39600 59300 76400 82100
2021-02-04 14:00 5.69 34600 85800 (2020) 36200 (2018) 58300 37500 39600 59300 76400 82100
2021-02-04 13:00 5.66 34400 85800 (2020) 36200 (2018) 58300 37500 39600 59300 76400 82100
2021-02-04 12:00 5.63 34300 85800 (2020) 36200 (2018) 58300 37500 39600 59300 76400 82100
2021-02-04 11:00 5.65 34400 85800 (2020) 36200 (2018) 58300 37500 39600 59300 76400 82100
2021-02-04 10:00 5.66 34400 85800 (2020) 36200 (2018) 58300 37500 39600 59300 76400 82100
2021-02-04 09:00 5.64 34300 85800 (2020) 36200 (2018) 58300 37500 39600 59300 76400 82100
2021-02-04 08:00 5.60 34200 85800 (2020) 36200 (2018) 58300 37500 39600 59300 76400 82100
2021-02-04 07:00 5.57 34000 85800 (2020) 36200 (2018) 58300 37500 39600 59300 76400 82100
2021-02-04 06:00 5.56 34000 85800 (2020) 36200 (2018) 58300 37500 39600 59300 76400 82100
2021-02-04 05:00 5.55 33900 85800 (2020) 36200 (2018) 58300 37500 39600 59300 76400 82100
2021-02-04 04:00 5.56 34000 85800 (2020) 36200 (2018) 58300 37500 39600 59300 76400 82100
2021-02-04 03:00 5.55 33900 85800 (2020) 36200 (2018) 58300 37500 39600 59300 76400 82100
2021-02-04 02:00 5.54 33900 85800 (2020) 36200 (2018) 58300 37500 39600 59300 76400 82100
2021-02-04 01:00 5.56 34000 85800 (2020) 36200 (2018) 58300 37500 39600 59300 76400 82100
2021-02-04 00:00 5.54 33900 85800 (2020) 36200 (2018) 58300 37500 39600 59300 76400 82100
2021-02-03 23:00 5.50 33700 80500 (2020) 36400 (2018) 55800 37600 39500 56000 71900 77100
2021-02-03 22:00 5.52 33800 80500 (2020) 36400 (2018) 55800 37600 39500 56000 71900 77100
2021-02-03 21:00 5.55 33900 80500 (2020) 36400 (2018) 55800 37600 39500 56000 71900 77100
2021-02-03 20:00 5.54 33900 80500 (2020) 36400 (2018) 55800 37600 39500 56000 71900 77100
2021-02-03 19:00 5.54 33900 80500 (2020) 36400 (2018) 55800 37600 39500 56000 71900 77100
2021-02-03 18:00 5.57 34000 80500 (2020) 36400 (2018) 55800 37600 39500 56000 71900 77100
2021-02-03 17:00 5.54 33900 80500 (2020) 36400 (2018) 55800 37600 39500 56000 71900 77100
2021-02-03 16:00 5.60 34200 80500 (2020) 36400 (2018) 55800 37600 39500 56000 71900 77100
2021-02-03 15:00 5.61 34200 80500 (2020) 36400 (2018) 55800 37600 39500 56000 71900 77100
2021-02-03 14:00 5.60 34200 80500 (2020) 36400 (2018) 55800 37600 39500 56000 71900 77100
2021-02-03 13:00 5.67 34500 80500 (2020) 36400 (2018) 55800 37600 39500 56000 71900 77100
2021-02-03 12:00 5.63 34300 80500 (2020) 36400 (2018) 55800 37600 39500 56000 71900 77100
2021-02-03 11:00 5.67 34500 80500 (2020) 36400 (2018) 55800 37600 39500 56000 71900 77100
2021-02-03 10:00 5.69 34600 80500 (2020) 36400 (2018) 55800 37600 39500 56000 71900 77100
2021-02-03 09:00 5.71 34600 80500 (2020) 36400 (2018) 55800 37600 39500 56000 71900 77100
2021-02-03 08:00 5.74 34800 80500 (2020) 36400 (2018) 55800 37600 39500 56000 71900 77100
2021-02-03 07:00 5.77 34900 80500 (2020) 36400 (2018) 55800 37600 39500 56000 71900 77100
2021-02-03 06:00 5.75 34800 80500 (2020) 36400 (2018) 55800 37600 39500 56000 71900 77100
2021-02-03 05:00 5.80 35000 80500 (2020) 36400 (2018) 55800 37600 39500 56000 71900 77100
2021-02-03 04:00 5.81 35100 80500 (2020) 36400 (2018) 55800 37600 39500 56000 71900 77100
2021-02-03 03:00 5.86 35300 80500 (2020) 36400 (2018) 55800 37600 39500 56000 71900 77100
2021-02-03 02:00 5.84 35200 80500 (2020) 36400 (2018) 55800 37600 39500 56000 71900 77100
2021-02-03 01:00 5.85 35300 80500 (2020) 36400 (2018) 55800 37600 39500 56000 71900 77100
2021-02-03 00:00 5.88 35400 80500 (2020) 36400 (2018) 55800 37600 39500 56000 71900 77100
2021-02-02 23:00 5.91 35500 77200 (2020) 37400 (2018) 55100 38700 40600 54500 69800 74200
2021-02-02 22:00 5.91 35500 77200 (2020) 37400 (2018) 55100 38700 40600 54500 69800 74200
2021-02-02 21:00 5.91 35500 77200 (2020) 37400 (2018) 55100 38700 40600 54500 69800 74200
2021-02-02 20:00 5.96 35800 77200 (2020) 37400 (2018) 55100 38700 40600 54500 69800 74200
2021-02-02 19:00 5.96 35800 77200 (2020) 37400 (2018) 55100 38700 40600 54500 69800 74200
2021-02-02 18:00 5.97 35800 77200 (2020) 37400 (2018) 55100 38700 40600 54500 69800 74200
2021-02-02 17:00 6.01 36000 77200 (2020) 37400 (2018) 55100 38700 40600 54500 69800 74200
2021-02-02 16:00 6.01 36000 77200 (2020) 37400 (2018) 55100 38700 40600 54500 69800 74200
2021-02-02 15:00 6.03 36100 77200 (2020) 37400 (2018) 55100 38700 40600 54500 69800 74200
2021-02-02 14:00 6.01 36000 77200 (2020) 37400 (2018) 55100 38700 40600 54500 69800 74200
2021-02-02 13:00 6.03 36100 77200 (2020) 37400 (2018) 55100 38700 40600 54500 69800 74200
2021-02-02 12:00 6.03 36100 77200 (2020) 37400 (2018) 55100 38700 40600 54500 69800 74200
2021-02-02 11:00 6.01 36000 77200 (2020) 37400 (2018) 55100 38700 40600 54500 69800 74200
2021-02-02 10:00 6.00 35900 77200 (2020) 37400 (2018) 55100 38700 40600 54500 69800 74200
2021-02-02 09:00 5.97 35800 77200 (2020) 37400 (2018) 55100 38700 40600 54500 69800 74200
2021-02-02 08:00 5.96 35800 77200 (2020) 37400 (2018) 55100 38700 40600 54500 69800 74200
2021-02-02 07:00 5.95 35700 77200 (2020) 37400 (2018) 55100 38700 40600 54500 69800 74200
2021-02-02 06:00 5.95 35700 77200 (2020) 37400 (2018) 55100 38700 40600 54500 69800 74200
2021-02-02 05:00 5.92 35600 77200 (2020) 37400 (2018) 55100 38700 40600 54500 69800 74200
2021-02-02 04:00 5.87 35400 77200 (2020) 37400 (2018) 55100 38700 40600 54500 69800 74200
2021-02-02 03:00 5.89 35400 77200 (2020) 37400 (2018) 55100 38700 40600 54500 69800 74200
2021-02-02 02:00 5.84 35200 77200 (2020) 37400 (2018) 55100 38700 40600 54500 69800 74200
2021-02-02 01:00 5.83 35200 77200 (2020) 37400 (2018) 55100 38700 40600 54500 69800 74200
2021-02-02 00:00 5.81 35100 77200 (2020) 37400 (2018) 55100 38700 40600 54500 69800 74200
2021-02-01 23:00 5.77 34900 76200 (2020) 38600 (2018) 55000 39900 41800 55400 67900 72900
2021-02-01 22:00 5.76 34900 76200 (2020) 38600 (2018) 55000 39900 41800 55400 67900 72900
2021-02-01 21:00 5.72 34700 76200 (2020) 38600 (2018) 55000 39900 41800 55400 67900 72900
2021-02-01 20:00 5.70 34600 76200 (2020) 38600 (2018) 55000 39900 41800 55400 67900 72900
2021-02-01 19:00 5.71 34600 76200 (2020) 38600 (2018) 55000 39900 41800 55400 67900 72900
2021-02-01 18:00 5.65 34400 76200 (2020) 38600 (2018) 55000 39900 41800 55400 67900 72900
2021-02-01 17:00 5.65 34400 76200 (2020) 38600 (2018) 55000 39900 41800 55400 67900 72900
2021-02-01 16:00 5.64 34300 76200 (2020) 38600 (2018) 55000 39900 41800 55400 67900 72900
2021-02-01 15:00 5.62 34200 76200 (2020) 38600 (2018) 55000 39900 41800 55400 67900 72900
2021-02-01 14:00 5.61 34200 76200 (2020) 38600 (2018) 55000 39900 41800 55400 67900 72900
2021-02-01 13:00 5.58 34100 76200 (2020) 38600 (2018) 55000 39900 41800 55400 67900 72900
2021-02-01 12:00 5.57 34000 76200 (2020) 38600 (2018) 55000 39900 41800 55400 67900 72900
2021-02-01 11:00 5.55 33900 76200 (2020) 38600 (2018) 55000 39900 41800 55400 67900 72900
2021-02-01 10:00 5.57 34000 76200 (2020) 38600 (2018) 55000 39900 41800 55400 67900 72900
2021-02-01 09:00 5.56 34000 76200 (2020) 38600 (2018) 55000 39900 41800 55400 67900 72900
2021-02-01 08:00 5.57 34000 76200 (2020) 38600 (2018) 55000 39900 41800 55400 67900 72900
2021-02-01 07:00 5.57 34000 76200 (2020) 38600 (2018) 55000 39900 41800 55400 67900 72900
2021-02-01 06:00 5.59 34100 76200 (2020) 38600 (2018) 55000 39900 41800 55400 67900 72900
2021-02-01 05:00 5.58 34100 76200 (2020) 38600 (2018) 55000 39900 41800 55400 67900 72900
2021-02-01 04:00 5.58 34100 76200 (2020) 38600 (2018) 55000 39900 41800 55400 67900 72900
2021-02-01 03:00 5.60 34200 76200 (2020) 38600 (2018) 55000 39900 41800 55400 67900 72900
2021-02-01 02:00 5.59 34100 76200 (2020) 38600 (2018) 55000 39900 41800 55400 67900 72900
2021-02-01 01:00 5.62 34200 76200 (2020) 38600 (2018) 55000 39900 41800 55400 67900 72900
2021-02-01 00:00 5.63 34300 76200 (2020) 38600 (2018) 55000 39900 41800 55400 67900 72900
2021-01-31 23:00 5.68 34500 76300 (2020) 39400 (2018) 55500 40600 42500 57000 67600 72800
2021-01-31 22:00 5.69 34600 76300 (2020) 39400 (2018) 55500 40600 42500 57000 67600 72800
2021-01-31 21:00 5.70 34600 76300 (2020) 39400 (2018) 55500 40600 42500 57000 67600 72800
2021-01-31 20:00 5.74 34800 76300 (2020) 39400 (2018) 55500 40600 42500 57000 67600 72800
2021-01-31 19:00 5.72 34700 76300 (2020) 39400 (2018) 55500 40600 42500 57000 67600 72800
2021-01-31 18:00 5.74 34800 76300 (2020) 39400 (2018) 55500 40600 42500 57000 67600 72800
2021-01-31 17:00 5.78 35000 76300 (2020) 39400 (2018) 55500 40600 42500 57000 67600 72800
2021-01-31 16:00 5.76 34900 76300 (2020) 39400 (2018) 55500 40600 42500 57000 67600 72800
2021-01-31 15:00 5.78 35000 76300 (2020) 39400 (2018) 55500 40600 42500 57000 67600 72800
2021-01-31 14:00 5.78 35000 76300 (2020) 39400 (2018) 55500 40600 42500 57000 67600 72800
2021-01-31 13:00 5.79 35000 76300 (2020) 39400 (2018) 55500 40600 42500 57000 67600 72800
2021-01-31 12:00 5.77 34900 76300 (2020) 39400 (2018) 55500 40600 42500 57000 67600 72800
2021-01-31 11:00 5.75 34800 76300 (2020) 39400 (2018) 55500 40600 42500 57000 67600 72800
2021-01-31 10:00 5.71 34600 76300 (2020) 39400 (2018) 55500 40600 42500 57000 67600 72800
2021-01-31 09:00 5.68 34500 76300 (2020) 39400 (2018) 55500 40600 42500 57000 67600 72800
2021-01-31 08:00 5.64 34300 76300 (2020) 39400 (2018) 55500 40600 42500 57000 67600 72800
2021-01-31 07:00 5.57 34000 76300 (2020) 39400 (2018) 55500 40600 42500 57000 67600 72800
2021-01-31 06:00 5.52 33800 76300 (2020) 39400 (2018) 55500 40600 42500 57000 67600 72800
2021-01-31 05:00 5.45 33500 76300 (2020) 39400 (2018) 55500 40600 42500 57000 67600 72800
2021-01-31 04:00 5.42 33400 76300 (2020) 39400 (2018) 55500 40600 42500 57000 67600 72800
2021-01-31 03:00 5.33 33000 76300 (2020) 39400 (2018) 55500 40600 42500 57000 67600 72800
2021-01-31 02:00 5.27 32700 76300 (2020) 39400 (2018) 55500 40600 42500 57000 67600 72800
2021-01-31 01:00 5.17 32300 76300 (2020) 39400 (2018) 55500 40600 42500 57000 67600 72800
2021-01-31 00:00 5.13 32100 76300 (2020) 39400 (2018) 55500 40600 42500 57000 67600 72800
2021-01-30 23:00 5.03 31700 75500 (2020) 39400 (2018) 55600 40800 42900 55800 68200 72600
2021-01-30 22:00 5.01 31600 75500 (2020) 39400 (2018) 55600 40800 42900 55800 68200 72600
2021-01-30 21:00 4.91 31200 75500 (2020) 39400 (2018) 55600 40800 42900 55800 68200 72600
2021-01-30 20:00 4.86 31000 75500 (2020) 39400 (2018) 55600 40800 42900 55800 68200 72600
2021-01-30 19:00 4.82 30900 75500 (2020) 39400 (2018) 55600 40800 42900 55800 68200 72600
2021-01-30 18:00 4.79 30700 75500 (2020) 39400 (2018) 55600 40800 42900 55800 68200 72600
2021-01-30 17:00 4.79 30700 75500 (2020) 39400 (2018) 55600 40800 42900 55800 68200 72600
2021-01-30 16:00 4.75 30600 75500 (2020) 39400 (2018) 55600 40800 42900 55800 68200 72600
2021-01-30 15:00 4.76 30600 75500 (2020) 39400 (2018) 55600 40800 42900 55800 68200 72600
2021-01-30 14:00 4.73 30500 75500 (2020) 39400 (2018) 55600 40800 42900 55800 68200 72600
2021-01-30 13:00 4.76 30600 75500 (2020) 39400 (2018) 55600 40800 42900 55800 68200 72600
2021-01-30 12:00 4.76 30600 75500 (2020) 39400 (2018) 55600 40800 42900 55800 68200 72600
2021-01-30 11:00 4.74 30500 75500 (2020) 39400 (2018) 55600 40800 42900 55800 68200 72600
2021-01-30 10:00 4.75 30600 75500 (2020) 39400 (2018) 55600 40800 42900 55800 68200 72600
2021-01-30 09:00 4.75 30600 75500 (2020) 39400 (2018) 55600 40800 42900 55800 68200 72600
2021-01-30 08:00 4.77 30700 75500 (2020) 39400 (2018) 55600 40800 42900 55800 68200 72600
2021-01-30 07:00 4.77 30700 75500 (2020) 39400 (2018) 55600 40800 42900 55800 68200 72600
2021-01-30 06:00 4.78 30700 75500 (2020) 39400 (2018) 55600 40800 42900 55800 68200 72600
2021-01-30 05:00 4.78 30700 75500 (2020) 39400 (2018) 55600 40800 42900 55800 68200 72600
2021-01-30 04:00 4.79 30700 75500 (2020) 39400 (2018) 55600 40800 42900 55800 68200 72600
2021-01-30 03:00 4.82 30900 75500 (2020) 39400 (2018) 55600 40800 42900 55800 68200 72600
2021-01-30 02:00 4.84 30900 75500 (2020) 39400 (2018) 55600 40800 42900 55800 68200 72600
2021-01-30 01:00 4.80 30800 75500 (2020) 39400 (2018) 55600 40800 42900 55800 68200 72600
2021-01-30 00:00 4.85 31000 75500 (2020) 39400 (2018) 55600 40800 42900 55800 68200 72600
2021-01-29 23:00 4.89 31100 73400 (2020) 38800 (2018) 55600 40600 43200 55800 67900 71200
2021-01-29 22:00 4.85 31000 73400 (2020) 38800 (2018) 55600 40600 43200 55800 67900 71200
2021-01-29 21:00 4.86 31000 73400 (2020) 38800 (2018) 55600 40600 43200 55800 67900 71200
2021-01-29 20:00 4.87 31100 73400 (2020) 38800 (2018) 55600 40600 43200 55800 67900 71200
2021-01-29 19:00 4.87 31100 73400 (2020) 38800 (2018) 55600 40600 43200 55800 67900 71200
2021-01-29 18:00 4.87 31100 73400 (2020) 38800 (2018) 55600 40600 43200 55800 67900 71200
2021-01-29 17:00 4.85 31000 73400 (2020) 38800 (2018) 55600 40600 43200 55800 67900 71200
2021-01-29 16:00 4.89 31100 73400 (2020) 38800 (2018) 55600 40600 43200 55800 67900 71200
2021-01-29 15:00 4.91 31200 73400 (2020) 38800 (2018) 55600 40600 43200 55800 67900 71200
2021-01-29 14:00 4.90 31200 73400 (2020) 38800 (2018) 55600 40600 43200 55800 67900 71200
2021-01-29 13:00 4.90 31200 73400 (2020) 38800 (2018) 55600 40600 43200 55800 67900 71200
2021-01-29 12:00 4.93 31300 73400 (2020) 38800 (2018) 55600 40600 43200 55800 67900 71200
2021-01-29 11:00 4.91 31200 73400 (2020) 38800 (2018) 55600 40600 43200 55800 67900 71200
2021-01-29 10:00 4.89 31100 73400 (2020) 38800 (2018) 55600 40600 43200 55800 67900 71200
2021-01-29 09:00 4.91 31200 73400 (2020) 38800 (2018) 55600 40600 43200 55800 67900 71200
2021-01-29 08:00 4.92 31300 73400 (2020) 38800 (2018) 55600 40600 43200 55800 67900 71200
2021-01-29 07:00 4.92 31300 73400 (2020) 38800 (2018) 55600 40600 43200 55800 67900 71200
2021-01-29 06:00 4.91 31200 73400 (2020) 38800 (2018) 55600 40600 43200 55800 67900 71200
2021-01-29 05:00 4.94 31300 73400 (2020) 38800 (2018) 55600 40600 43200 55800 67900 71200
2021-01-29 04:00 4.95 31400 73400 (2020) 38800 (2018) 55600 40600 43200 55800 67900 71200
2021-01-29 03:00 4.93 31300 73400 (2020) 38800 (2018) 55600 40600 43200 55800 67900 71200
2021-01-29 02:00 4.94 31300 73400 (2020) 38800 (2018) 55600 40600 43200 55800 67900 71200
2021-01-29 01:00 4.94 31300 73400 (2020) 38800 (2018) 55600 40600 43200 55800 67900 71200
2021-01-29 00:00 4.93 31300 73400 (2020) 38800 (2018) 55600 40600 43200 55800 67900 71200
2021-01-28 23:00 4.95 31400 72200 (2020) 38900 (2018) 55500 40800 43600 55000 67600 70400
2021-01-28 22:00 4.94 31300 72200 (2020) 38900 (2018) 55500 40800 43600 55000 67600 70400
2021-01-28 21:00 4.95 31400 72200 (2020) 38900 (2018) 55500 40800 43600 55000 67600 70400
2021-01-28 20:00 4.95 31400 72200 (2020) 38900 (2018) 55500 40800 43600 55000 67600 70400
2021-01-28 19:00 4.96 31400 72200 (2020) 38900 (2018) 55500 40800 43600 55000 67600 70400
2021-01-28 18:00 5.01 31600 72200 (2020) 38900 (2018) 55500 40800 43600 55000 67600 70400
2021-01-28 17:00 4.99 31600 72200 (2020) 38900 (2018) 55500 40800 43600 55000 67600 70400
2021-01-28 16:00 5.03 31700 72200 (2020) 38900 (2018) 55500 40800 43600 55000 67600 70400
2021-01-28 15:00 5.02 31700 72200 (2020) 38900 (2018) 55500 40800 43600 55000 67600 70400
2021-01-28 14:00 5.03 31700 72200 (2020) 38900 (2018) 55500 40800 43600 55000 67600 70400
2021-01-28 13:00 5.03 31700 72200 (2020) 38900 (2018) 55500 40800 43600 55000 67600 70400
2021-01-28 12:00 5.03 31700 72200 (2020) 38900 (2018) 55500 40800 43600 55000 67600 70400
2021-01-28 11:00 5.03 31700 72200 (2020) 38900 (2018) 55500 40800 43600 55000 67600 70400
2021-01-28 10:00 5.06 31800 72200 (2020) 38900 (2018) 55500 40800 43600 55000 67600 70400
2021-01-28 09:00 5.07 31900 72200 (2020) 38900 (2018) 55500 40800 43600 55000 67600 70400
2021-01-28 08:00 5.09 32000 72200 (2020) 38900 (2018) 55500 40800 43600 55000 67600 70400
2021-01-28 07:00 5.11 32100 72200 (2020) 38900 (2018) 55500 40800 43600 55000 67600 70400
2021-01-28 06:00 5.10 32000 72200 (2020) 38900 (2018) 55500 40800 43600 55000 67600 70400
2021-01-28 05:00 5.10 32000 72200 (2020) 38900 (2018) 55500 40800 43600 55000 67600 70400
2021-01-28 04:00 5.14 32200 72200 (2020) 38900 (2018) 55500 40800 43600 55000 67600 70400
2021-01-28 03:00 5.16 32300 72200 (2020) 38900 (2018) 55500 40800 43600 55000 67600 70400
2021-01-28 02:00 5.13 32100 72200 (2020) 38900 (2018) 55500 40800 43600 55000 67600 70400
2021-01-28 01:00 5.19 32400 72200 (2020) 38900 (2018) 55500 40800 43600 55000 67600 70400
2021-01-28 00:00 5.16 32300 72200 (2020) 38900 (2018) 55500 40800 43600 55000 67600 70400
2021-01-27 23:00 5.17 32300 73400 (2020) 39500 (2018) 55700 41400 44300 55100 67400 71000
2021-01-27 22:00 5.19 32400 73400 (2020) 39500 (2018) 55700 41400 44300 55100 67400 71000
2021-01-27 21:00 5.19 32400 73400 (2020) 39500 (2018) 55700 41400 44300 55100 67400 71000
2021-01-27 20:00 5.19 32400 73400 (2020) 39500 (2018) 55700 41400 44300 55100 67400 71000
2021-01-27 19:00 5.25 32600 73400 (2020) 39500 (2018) 55700 41400 44300 55100 67400 71000
2021-01-27 18:00 5.25 32600 73400 (2020) 39500 (2018) 55700 41400 44300 55100 67400 71000
2021-01-27 17:00 5.24 32600 73400 (2020) 39500 (2018) 55700 41400 44300 55100 67400 71000
2021-01-27 16:00 5.29 32800 73400 (2020) 39500 (2018) 55700 41400 44300 55100 67400 71000
2021-01-27 15:00 5.26 32700 73400 (2020) 39500 (2018) 55700 41400 44300 55100 67400 71000
2021-01-27 14:00 5.30 32900 73400 (2020) 39500 (2018) 55700 41400 44300 55100 67400 71000
2021-01-27 13:00 5.30 32900 73400 (2020) 39500 (2018) 55700 41400 44300 55100 67400 71000
2021-01-27 12:00 5.36 33100 73400 (2020) 39500 (2018) 55700 41400 44300 55100 67400 71000
2021-01-27 11:00 5.33 33000 73400 (2020) 39500 (2018) 55700 41400 44300 55100 67400 71000
2021-01-27 10:00 5.36 33100 73400 (2020) 39500 (2018) 55700 41400 44300 55100 67400 71000
2021-01-27 09:00 5.37 33200 73400 (2020) 39500 (2018) 55700 41400 44300 55100 67400 71000
2021-01-27 08:00 5.37 33200 73400 (2020) 39500 (2018) 55700 41400 44300 55100 67400 71000
2021-01-27 07:00 5.39 33200 73400 (2020) 39500 (2018) 55700 41400 44300 55100 67400 71000
2021-01-27 06:00 5.41 33300 73400 (2020) 39500 (2018) 55700 41400 44300 55100 67400 71000
2021-01-27 05:00 5.38 33200 73400 (2020) 39500 (2018) 55700 41400 44300 55100 67400 71000
2021-01-27 04:00 5.43 33400 73400 (2020) 39500 (2018) 55700 41400 44300 55100 67400 71000
2021-01-27 03:00 5.44 33500 73400 (2020) 39500 (2018) 55700 41400 44300 55100 67400 71000
2021-01-27 02:00 5.44 33500 73400 (2020) 39500 (2018) 55700 41400 44300 55100 67400 71000
2021-01-27 01:00 5.45 33500 73400 (2020) 39500 (2018) 55700 41400 44300 55100 67400 71000
2021-01-27 00:00 5.50 33700 73400 (2020) 39500 (2018) 55700 41400 44300 55100 67400 71000
2021-01-26 23:00 5.49 33700 73000 (2020) 40100 (2018) 55500 42100 45200 55500 65800 70100
2021-01-26 22:00 5.50 33700 73000 (2020) 40100 (2018) 55500 42100 45200 55500 65800 70100
2021-01-26 21:00 5.49 33700 73000 (2020) 40100 (2018) 55500 42100 45200 55500 65800 70100
2021-01-26 20:00 5.51 33800 73000 (2020) 40100 (2018) 55500 42100 45200 55500 65800 70100
2021-01-26 19:00 5.55 33900 73000 (2020) 40100 (2018) 55500 42100 45200 55500 65800 70100
2021-01-26 18:00 5.54 33900 73000 (2020) 40100 (2018) 55500 42100 45200 55500 65800 70100
2021-01-26 17:00 5.52 33800 73000 (2020) 40100 (2018) 55500 42100 45200 55500 65800 70100
2021-01-26 16:00 5.57 34000 73000 (2020) 40100 (2018) 55500 42100 45200 55500 65800 70100
2021-01-26 15:00 5.55 33900 73000 (2020) 40100 (2018) 55500 42100 45200 55500 65800 70100
2021-01-26 14:00 5.56 34000 73000 (2020) 40100 (2018) 55500 42100 45200 55500 65800 70100
2021-01-26 13:00 5.57 34000 73000 (2020) 40100 (2018) 55500 42100 45200 55500 65800 70100
2021-01-26 12:00 5.57 34000 73000 (2020) 40100 (2018) 55500 42100 45200 55500 65800 70100
2021-01-26 11:00 5.56 34000 73000 (2020) 40100 (2018) 55500 42100 45200 55500 65800 70100
2021-01-26 10:00 5.55 33900 73000 (2020) 40100 (2018) 55500 42100 45200 55500 65800 70100
2021-01-26 09:00 5.58 34100 73000 (2020) 40100 (2018) 55500 42100 45200 55500 65800 70100
2021-01-26 08:00 5.57 34000 73000 (2020) 40100 (2018) 55500 42100 45200 55500 65800 70100
2021-01-26 07:00 5.56 34000 73000 (2020) 40100 (2018) 55500 42100 45200 55500 65800 70100
2021-01-26 06:00 5.55 33900 73000 (2020) 40100 (2018) 55500 42100 45200 55500 65800 70100
2021-01-26 05:00 5.52 33800 73000 (2020) 40100 (2018) 55500 42100 45200 55500 65800 70100
2021-01-26 04:00 5.50 33700 73000 (2020) 40100 (2018) 55500 42100 45200 55500 65800 70100
2021-01-26 03:00 5.52 33800 73000 (2020) 40100 (2018) 55500 42100 45200 55500 65800 70100
2021-01-26 02:00 5.50 33700 73000 (2020) 40100 (2018) 55500 42100 45200 55500 65800 70100
2021-01-26 01:00 5.44 33500 73000 (2020) 40100 (2018) 55500 42100 45200 55500 65800 70100
2021-01-26 00:00 5.42 33400 73000 (2020) 40100 (2018) 55500 42100 45200 55500 65800 70100

A total of 729 rows are displayed for years 2016 through 2020.